Time;durP1;ratioP1;P1;durP2;ratioP2;P2;SDS_P1;SDS_P2;PMS_P1;PMS_P2;Temp;Humidity;BMP_temperature;BMP_pressure;BME280_temperature;BME280_humidity;BME280_pressure;Samples;Min_cycle;Max_cycle;Signal;HPM_P1;HPM_P2
2021/01/05 00:01:50;;;;;;;34.38;16.85;;;;;;;2.51;88.57;98925.34;4994777;28;20073;-72
2021/01/05 00:04:20;;;;;;;33.50;16.67;;;;;;;2.38;88.20;98929.28;4994400;28;20042;-71
2021/01/05 00:06:48;;;;;;;33.92;16.83;;;;;;;2.45;88.80;98926.06;4994694;28;20408;-72
2021/01/05 00:09:16;;;;;;;34.28;18.02;;;;;;;2.39;88.11;98925.97;4994331;28;20046;-72
2021/01/05 00:11:50;;;;;;;33.20;15.95;;;;;;;2.32;88.51;98924.16;4994169;28;20051;-71
2021/01/05 00:14:19;;;;;;;35.00;17.42;;;;;;;2.17;88.42;98928.00;4994320;28;20445;-71
2021/01/05 00:16:48;;;;;;;32.70;16.40;;;;;;;2.09;88.12;98920.31;4994228;28;20066;-71
2021/01/05 00:19:16;;;;;;;32.83;16.38;;;;;;;2.08;88.66;98923.66;4994186;28;20050;-71
2021/01/05 00:21:45;;;;;;;32.65;16.92;;;;;;;2.09;87.97;98919.47;4992970;28;20038;-72
2021/01/05 00:24:14;;;;;;;30.75;16.17;;;;;;;2.07;88.63;98924.47;4994533;28;20054;-71
2021/01/05 00:26:42;;;;;;;33.15;16.17;;;;;;;2.05;88.55;98918.56;4993056;28;20130;-71
2021/01/05 00:29:11;;;;;;;31.97;16.90;;;;;;;2.09;88.51;98930.38;4994376;28;20116;-72
2021/01/05 00:31:40;;;;;;;35.83;16.98;;;;;;;2.05;88.15;98923.59;4994087;28;20280;-72
2021/01/05 00:34:09;;;;;;;37.55;16.98;;;;;;;2.05;88.27;98928.63;5009239;28;20054;-72
2021/01/05 00:36:37;;;;;;;31.90;16.50;;;;;;;2.09;88.47;98924.50;4994347;28;20039;-72
2021/01/05 00:39:08;;;;;;;34.55;17.05;;;;;;;2.11;88.31;98918.69;4994069;28;20045;-72
2021/01/05 00:41:38;;;;;;;;;;;;;;;2.14;87.90;98928.78;4994458;28;20054;-71
2021/01/05 00:44:24;;;;;;;37.25;17.05;;;;;;;2.24;88.96;98915.59;4993782;28;19933;-71
2021/01/05 00:46:55;;;;;;;35.80;17.02;;;;;;;2.31;88.76;98922.44;4972710;28;20063;-72
2021/01/05 00:49:24;;;;;;;33.15;17.75;;;;;;;2.30;88.42;98925.78;4956483;28;20053;-72
2021/01/05 00:51:53;;;;;;;34.05;17.17;;;;;;;2.07;88.34;98888.38;4972670;28;20448;-71
2021/01/05 00:54:25;;;;;;;34.72;17.60;;;;;;;2.21;88.07;98929.78;4972499;28;20062;-72
2021/01/05 00:56:58;;;;;;;38.70;18.70;;;;;;;2.10;88.81;98932.09;4956477;28;20051;-72
2021/01/05 00:59:28;;;;;;;34.97;17.65;;;;;;;2.11;88.03;98928.75;4972457;28;20039;-72
2021/01/05 01:01:58;;;;;;;37.28;17.83;;;;;;;2.12;88.01;98927.91;4972580;28;20046;-72
2021/01/05 01:04:31;;;;;;;39.22;19.25;;;;;;;1.98;88.18;98886.53;4957013;28;20051;-73
2021/01/05 01:07:01;;;;;;;36.97;18.35;;;;;;;2.20;88.95;98918.88;4972358;28;20074;-72
2021/01/05 01:09:32;;;;;;;34.63;17.55;;;;;;;2.27;88.90;98915.66;4972638;28;20098;-73
2021/01/05 01:12:07;;;;;;;33.05;16.77;;;;;;;2.33;88.35;98920.78;4956532;28;20066;-71
2021/01/05 01:14:44;;;;;;;32.65;17.30;;;;;;;2.16;88.67;98896.94;4956275;28;20046;-72
2021/01/05 01:17:20;;;;;;;37.22;17.85;;;;;;;2.34;88.77;98922.50;4972248;28;20182;-71
2021/01/05 01:19:50;;;;;;;33.95;16.92;;;;;;;2.37;88.47;98921.72;4972286;28;20070;-72
2021/01/05 01:22:19;;;;;;;34.15;17.15;;;;;;;2.42;88.49;98923.50;4972043;28;20114;-72
2021/01/05 01:24:52;;;;;;;37.72;17.58;;;;;;;2.44;88.35;98921.88;4990316;28;20444;-71
2021/01/05 01:27:29;;;;;;;35.10;16.73;;;;;;;2.42;87.96;98926.03;4992841;28;20069;-72
2021/01/05 01:29:57;;;;;;;32.83;16.27;;;;;;;2.19;87.99;98914.63;4992617;28;20046;-71
2021/01/05 01:32:25;;;;;;;31.25;16.55;;;;;;;2.10;88.33;98921.16;4992418;28;20042;-72
2021/01/05 01:34:54;;;;;;;34.58;15.82;;;;;;;2.09;88.64;98925.34;5008689;28;20083;-72
2021/01/05 01:37:25;;;;;;;32.90;15.75;;;;;;;2.14;88.25;98922.91;4992406;28;20058;-72
2021/01/05 01:40:00;;;;;;;35.45;17.08;;;;;;;2.25;88.05;98914.78;5008546;28;20051;-72
2021/01/05 01:42:31;;;;;;;30.58;15.90;;;;;;;2.17;89.02;98913.75;4994812;28;20057;-72
2021/01/05 01:45:01;;;;;;;33.28;16.08;;;;;;;1.78;88.32;98872.69;5012040;28;20105;-72
2021/01/05 01:47:34;;;;;;;31.90;14.07;;;;;;;1.96;88.30;98909.16;4979666;28;20113;-72
2021/01/05 01:50:12;;;;;;;29.33;14.43;;;;;;;1.99;88.28;98905.88;5012329;28;20442;-71
2021/01/05 01:53:11;;;;;;;28.90;14.27;;;;;;;1.97;88.79;98899.91;4995668;28;20049;-72
2021/01/05 01:56:01;;;;;;;33.22;15.90;;;;;;;2.01;88.98;98902.56;4994777;28;20050;-72
2021/01/05 01:58:57;;;;;;;26.92;14.18;;;;;;;2.12;88.55;98900.25;4995642;28;20074;-73
2021/01/05 02:01:39;;;;;;;30.23;14.37;;;;;;;2.27;88.34;98899.69;5011929;28;20046;-71
2021/01/05 02:04:26;;;;;;;31.15;15.10;;;;;;;2.32;88.99;98893.94;5011771;28;20077;-72
2021/01/05 02:07:12;;;;;;;29.08;13.85;;;;;;;2.26;88.76;98888.78;4996850;28;20046;-73
2021/01/05 02:09:50;;;;;;;29.30;13.45;;;;;;;2.16;88.85;98894.44;4995371;28;20050;-72
2021/01/05 02:12:28;;;;;;;30.48;15.50;;;;;;;2.31;89.12;98891.38;4995382;28;20145;-71
2021/01/05 02:15:07;;;;;;;34.05;14.95;;;;;;;2.36;88.47;98890.66;4995371;28;20057;-72
2021/01/05 02:17:52;;;;;;;;;;;;;;;2.27;88.37;98885.44;5011942;28;20043;-72
2021/01/05 02:20:26;;;;;;;27.15;12.73;;;;;;;2.01;88.52;98856.41;4980671;28;20368;-72
2021/01/05 02:23:11;;;;;;;29.35;11.93;;;;;;;2.11;88.54;98885.13;4995149;28;20042;-72
2021/01/05 02:25:52;;;;;;;22.83;12.75;;;;;;;2.18;88.73;98880.25;4996224;28;20457;-71
2021/01/05 02:28:29;;;;;;;26.23;12.57;;;;;;;2.16;88.26;98876.00;4995390;28;20116;-71
2021/01/05 02:31:05;;;;;;;29.80;13.55;;;;;;;2.17;89.10;98876.03;4995008;28;20404;-71
2021/01/05 02:33:48;;;;;;;30.48;13.25;;;;;;;2.26;88.44;98877.84;5011357;28;20109;-72
2021/01/05 02:36:36;;;;;;;27.67;12.85;;;;;;;2.19;88.19;98878.56;4994960;28;20124;-71
2021/01/05 02:39:31;;;;;;;30.48;14.10;;;;;;;2.27;88.88;98880.41;4996043;28;20104;-72
2021/01/05 02:42:22;;;;;;;29.85;13.20;;;;;;;2.23;88.61;98878.63;4995952;28;20050;-71
2021/01/05 02:45:06;;;;;;;29.75;13.52;;;;;;;2.23;88.61;98873.59;4957170;28;20067;-71
2021/01/05 02:47:59;;;;;;;30.75;13.63;;;;;;;2.13;89.04;98869.25;4957202;28;20047;-72
2021/01/05 02:51:18;;;;;;;24.65;13.02;;;;;;;2.11;88.36;98868.38;4956312;28;20051;-71
2021/01/05 02:54:13;;;;;;;24.92;12.63;;;;;;;2.03;89.11;98837.16;4956762;28;20043;-72
2021/01/05 02:57:08;;;;;;;26.92;13.63;;;;;;;2.11;88.76;98862.47;4956944;28;20507;-72
2021/01/05 02:59:58;;;;;;;25.33;12.57;;;;;;;2.07;89.16;98860.69;4956755;29;20490;-72
2021/01/05 03:02:46;;;;;;;28.27;13.23;;;;;;;2.07;89.07;98855.66;4956908;28;20067;-72
2021/01/05 03:05:18;;;;;;;29.23;13.25;;;;;;;2.23;89.01;98855.16;4956795;29;20051;-71
2021/01/05 03:07:50;;;;;;;29.50;14.40;;;;;;;2.18;89.17;98855.06;4956788;28;20455;-72
2021/01/05 03:10:36;;;;;;;28.00;13.73;;;;;;;0.78;88.49;98616.84;4956657;28;20079;-72
2021/01/05 03:13:29;;;;;;;32.22;14.10;;;;;;;2.00;89.05;98825.38;4956689;28;20051;-71
2021/01/05 03:16:06;;;;;;;26.83;12.85;;;;;;;2.19;89.36;98841.66;4956602;28;20051;-72
2021/01/05 03:18:47;;;;;;;22.15;11.40;;;;;;;2.22;89.40;98836.69;4956608;28;20051;-72
2021/01/05 03:21:23;;;;;;;25.15;11.80;;;;;;;2.18;89.14;98832.44;4956430;28;20057;-72
2021/01/05 03:23:57;;;;;;;25.75;11.98;;;;;;;2.04;88.72;98818.72;4956461;28;20105;-71
2021/01/05 03:26:34;;;;;;;23.33;11.25;;;;;;;2.04;88.58;98816.19;4956401;28;20043;-72
2021/01/05 03:29:08;;;;;;;30.30;12.68;;;;;;;2.17;88.77;98822.31;4956341;28;20062;-72
2021/01/05 03:32:04;;;;;;;23.70;11.55;;;;;;;2.11;88.66;98823.06;4949091;28;20118;-71
2021/01/05 03:34:37;;;;;;;25.45;11.77;;;;;;;2.01;89.35;98813.66;4956289;28;20051;-72
2021/01/05 03:37:09;;;;;;;25.60;11.88;;;;;;;2.04;89.21;98816.19;4956206;28;20150;-72
2021/01/05 03:39:40;;;;;;;26.63;12.07;;;;;;;2.11;89.22;98813.00;4956069;29;20047;-72
2021/01/05 03:42:11;;;;;;;25.80;11.95;;;;;;;1.97;88.60;98814.38;4958052;28;20134;-71
2021/01/05 03:44:43;;;;;;;23.35;11.13;;;;;;;1.99;88.73;98813.59;4994831;28;20050;-72
2021/01/05 03:47:18;;;;;;;24.17;11.82;;;;;;;2.10;89.33;98805.41;4994752;28;20496;-72
2021/01/05 03:49:52;;;;;;;24.13;11.80;;;;;;;2.01;89.20;98806.09;4994560;28;20108;-72
2021/01/05 03:52:24;;;;;;;28.20;12.50;;;;;;;2.02;88.66;98803.59;4994750;28;20054;-71
2021/01/05 03:54:55;;;;;;;26.02;12.60;;;;;;;1.98;89.06;98806.03;4994801;28;20070;-72
2021/01/05 03:57:26;;;;;;;23.33;11.68;;;;;;;1.91;89.00;98812.63;4994533;28;20209;-71
2021/01/05 03:59:58;;;;;;;23.77;12.32;;;;;;;1.87;88.91;98813.38;4994396;28;20042;-72
2021/01/05 04:02:31;;;;;;;25.08;11.93;;;;;;;1.63;88.61;98807.03;4994497;28;20493;-72
2021/01/05 04:05:04;;;;;;;26.50;12.43;;;;;;;1.49;88.73;98808.41;4992682;28;20054;-72
2021/01/05 04:07:34;;;;;;;27.52;12.07;;;;;;;1.43;88.63;98805.75;4994617;28;20050;-71
2021/01/05 04:10:05;;;;;;;24.92;12.05;;;;;;;1.42;88.82;98797.34;4994377;28;20501;-70
2021/01/05 04:12:33;;;;;;;25.65;12.18;;;;;;;1.40;88.72;98793.97;4993055;28;20090;-71
2021/01/05 04:15:01;;;;;;;27.90;12.95;;;;;;;1.39;88.50;98798.97;4994303;28;20057;-71
2021/01/05 04:17:31;;;;;;;30.40;13.83;;;;;;;1.35;88.87;98788.84;4994279;28;20090;-71
2021/01/05 04:19:59;;;;;;;36.38;16.08;;;;;;;1.48;88.68;98796.66;4994398;28;20058;-72
2021/01/05 04:22:41;;;;;;;33.10;16.25;;;;;;;1.35;88.23;98801.41;5132981;27;20345;-70
2021/01/05 04:25:10;;;;;;;49.00;19.98;;;;;;;1.28;88.97;98797.06;5130761;28;20043;-71
2021/01/05 04:27:38;;;;;;;60.70;23.27;;;;;;;1.19;88.82;98799.41;5131924;27;20047;-71
2021/01/05 04:30:09;;;;;;;57.45;25.80;;;;;;;1.14;88.33;98790.06;5131853;28;20118;-71
2021/01/05 04:32:37;;;;;;;54.47;25.27;;;;;;;1.01;88.74;98801.47;5131837;27;20378;-71
2021/01/05 04:35:07;;;;;;;55.47;24.27;;;;;;;1.02;88.39;98803.19;5131728;27;20050;-71
2021/01/05 04:37:35;;;;;;;46.80;20.58;;;;;;;1.08;88.34;98795.78;5131782;27;20052;-72
2021/01/05 04:40:05;;;;;;;39.45;17.95;;;;;;;1.00;88.57;98803.97;5131643;27;20173;-71
2021/01/05 04:42:38;;;;;;;41.20;17.17;;;;;;;0.90;88.39;98795.38;5131574;27;20051;-71
2021/01/05 04:45:11;;;;;;;40.35;17.95;;;;;;;0.65;88.38;98762.97;5131923;27;20047;-72
2021/01/05 04:47:56;;;;;;;34.90;16.23;;;;;;;0.82;88.50;98803.53;5131465;27;20180;-71
2021/01/05 04:50:33;;;;;;;32.42;15.70;;;;;;;0.86;88.59;98798.66;5131534;27;20108;-71
2021/01/05 04:53:12;;;;;;;35.58;15.05;;;;;;;0.88;88.35;98802.03;5131631;27;20051;-71
2021/01/05 04:55:56;;;;;;;34.72;14.68;;;;;;;0.80;88.81;98797.63;5131494;28;20059;-71
2021/01/05 04:58:29;;;;;;;34.60;16.40;;;;;;;0.80;88.31;98798.47;5131293;27;20122;-72
2021/01/05 05:00:59;;;;;;;35.65;16.27;;;;;;;0.68;88.44;98803.22;5131849;27;20453;-71
2021/01/05 05:03:43;;;;;;;31.20;15.35;;;;;;;0.67;88.88;98802.38;5131469;28;20043;-72
2021/01/05 05:06:21;;;;;;;32.80;15.30;;;;;;;0.66;88.80;98804.84;5131218;27;20123;-72
2021/01/05 05:09:03;;;;;;;36.05;14.98;;;;;;;0.64;88.94;98801.47;5131175;27;20544;-72
2021/01/05 05:11:43;;;;;;;30.75;14.43;;;;;;;0.66;88.90;98809.88;5131165;27;20489;-71
2021/01/05 05:14:21;;;;;;;29.38;14.82;;;;;;;0.73;88.74;98810.84;5131138;27;20082;-71
2021/01/05 05:17:03;;;;;;;28.52;14.15;;;;;;;0.72;88.50;98804.97;5131005;27;20087;-72
2021/01/05 05:19:49;;;;;;;33.03;15.02;;;;;;;0.65;88.51;98803.13;5130968;27;20047;-71
2021/01/05 05:22:28;;;;;;;33.90;14.00;;;;;;;0.66;88.45;98804.84;5130613;28;20454;-71
2021/01/05 05:25:00;;;;;;;31.80;13.67;;;;;;;0.66;88.59;98802.34;5130810;28;20047;-71
2021/01/05 05:27:40;;;;;;;28.90;14.05;;;;;;;0.54;88.46;98802.03;5130835;28;20064;-72
2021/01/05 05:30:11;;;;;;;26.98;13.52;;;;;;;0.42;88.51;98809.25;5130652;27;20051;-71
2021/01/05 05:32:48;;;;;;;29.48;13.65;;;;;;;0.54;88.82;98804.56;5124842;27;20090;-71
2021/01/05 05:35:55;;;;;;;30.75;15.02;;;;;;;0.50;88.57;98807.81;5100043;28;20051;-71
2021/01/05 05:38:31;;;;;;;26.83;14.13;;;;;;;0.44;88.52;98812.66;5116853;28;20040;-71
2021/01/05 05:41:15;;;;;;;29.48;14.77;;;;;;;0.50;88.64;98812.81;5116823;28;20122;-71
2021/01/05 05:44:02;;;;;;;27.30;13.95;;;;;;;0.34;88.25;98806.56;5116751;28;20054;-71
2021/01/05 05:46:41;;;;;;;28.42;14.00;;;;;;;0.27;88.68;98811.38;5116712;28;20465;-71
2021/01/05 05:49:27;;;;;;;31.15;14.35;;;;;;;0.26;88.48;98812.22;5116907;28;20138;-71
2021/01/05 05:52:00;;;;;;;27.15;12.82;;;;;;;0.42;88.64;98801.75;5116612;28;20051;-72
2021/01/05 05:54:33;;;;;;;29.08;13.98;;;;;;;0.51;88.60;98804.47;5116890;27;20051;-71
2021/01/05 05:57:22;;;;;;;26.38;13.02;;;;;;;0.06;88.35;98748.13;5116542;28;20151;-72
2021/01/05 05:59:57;;;;;;;29.13;13.63;;;;;;;0.48;88.26;98804.41;5116559;28;20075;-72
2021/01/05 06:02:28;;;;;;;29.48;13.82;;;;;;;0.62;88.32;98798.06;5116426;27;20058;-72
2021/01/05 06:04:58;;;;;;;26.55;13.13;;;;;;;0.60;88.51;98804.72;5116366;28;20067;-72
2021/01/05 06:07:27;;;;;;;30.35;14.38;;;;;;;0.60;88.16;98804.72;5116283;28;20074;-72
2021/01/05 06:09:55;;;;;;;31.40;14.20;;;;;;;0.51;88.20;98802.81;5116264;28;20122;-71
2021/01/05 06:12:25;;;;;;;26.27;13.40;;;;;;;0.49;88.66;98801.06;5116274;28;20048;-71
2021/01/05 06:14:54;;;;;;;32.92;14.13;;;;;;;0.51;88.18;98805.31;5116378;28;20050;-71
2021/01/05 06:17:23;;;;;;;;;;;;;;;0.68;88.47;98803.22;5116698;28;20070;-72
2021/01/05 06:19:52;;;;;;;32.60;13.45;;;;;;;0.71;88.18;98808.31;5116406;28;20002;-72
2021/01/05 06:22:20;;;;;;;32.85;14.57;;;;;;;0.77;88.60;98805.13;5115789;28;20123;-72
2021/01/05 06:24:49;;;;;;;33.55;14.63;;;;;;;0.78;88.58;98806.78;5116454;28;20040;-72
2021/01/05 06:27:17;;;;;;;31.50;14.70;;;;;;;0.81;88.61;98805.22;5115815;28;20149;-71
2021/01/05 06:29:45;;;;;;;30.52;15.27;;;;;;;0.77;88.27;98805.94;5115881;28;20075;-71
2021/01/05 06:32:15;;;;;;;30.77;14.30;;;;;;;0.65;88.30;98808.16;5115927;28;20048;-72
2021/01/05 06:34:44;;;;;;;35.38;14.55;;;;;;;0.63;88.44;98800.59;5115718;28;20413;-71
2021/01/05 06:37:12;;;;;;;33.63;15.25;;;;;;;0.74;88.44;98803.38;5115776;28;20393;-71
2021/01/05 06:39:58;;;;;;;34.58;16.58;;;;;;;0.89;88.59;98803.72;5115673;28;20044;-71
2021/01/05 06:42:29;;;;;;;33.65;14.82;;;;;;;0.84;88.27;98805.25;5033039;28;20079;-72
2021/01/05 06:44:58;;;;;;;30.90;15.30;;;;;;;0.80;88.67;98807.66;5032243;28;20523;-71
2021/01/05 06:47:28;;;;;;;;;;;;;;;0.85;88.41;98812.00;5033265;28;20072;-72
2021/01/05 06:49:56;;;;;;;29.02;14.15;;;;;;;-1.49;88.00;98433.53;5016708;28;20034;-71
2021/01/05 06:52:25;;;;;;;38.75;16.55;;;;;;;0.84;88.62;98814.50;5032745;28;20072;-71
2021/01/05 06:54:53;;;;;;;34.92;15.75;;;;;;;0.99;88.57;98813.16;5032778;28;20530;-71
2021/01/05 06:57:23;;;;;;;34.50;16.52;;;;;;;0.99;88.22;98818.19;5032758;28;20144;-71
2021/01/05 06:59:52;;;;;;;34.78;15.73;;;;;;;1.01;88.62;98819.06;5032653;28;20049;-72
2021/01/05 07:02:20;;;;;;;32.42;15.98;;;;;;;1.04;88.68;98818.28;5032628;28;20041;-72
2021/01/05 07:04:50;;;;;;;34.10;17.55;;;;;;;0.97;88.56;98822.34;5032624;28;20064;-72
2021/01/05 07:07:18;;;;;;;38.85;17.42;;;;;;;1.15;88.85;98822.72;5032488;28;20048;-71
2021/01/05 07:09:47;;;;;;;;;;;;;;;1.19;88.66;98821.16;5033044;28;20103;-71
2021/01/05 07:12:20;;;;;;;49.60;22.55;;;;;;;1.23;88.24;98815.38;5032362;28;19975;-71
2021/01/05 07:14:51;;;;;;;51.40;22.50;;;;;;;1.27;88.50;98823.00;5032430;28;20176;-71
2021/01/05 07:17:19;;;;;;;36.10;15.85;;;;;;;1.06;88.18;98772.28;5032646;28;20514;-70
2021/01/05 07:19:49;;;;;;;24.23;11.18;;;;;;;1.23;88.96;98811.19;5081742;28;20044;-72
2021/01/05 07:22:18;;;;;;;21.58;10.70;;;;;;;1.18;88.72;98812.75;5114575;28;20122;-71
2021/01/05 07:24:47;;;;;;;22.77;8.67;;;;;;;1.07;88.60;98811.69;5115124;28;20597;-72
2021/01/05 07:27:15;;;;;;;28.38;11.65;;;;;;;1.23;88.48;98816.22;5115033;28;20385;-71
2021/01/05 07:29:44;;;;;;;25.87;11.93;;;;;;;1.29;88.51;98821.41;5114825;28;20512;-72
2021/01/05 07:32:12;;;;;;;27.92;12.95;;;;;;;1.27;88.40;98823.00;5114638;28;20088;-72
2021/01/05 07:34:41;;;;;;;26.98;12.02;;;;;;;1.25;88.98;98812.06;5114555;28;20489;-71
2021/01/05 07:37:16;;;;;;;26.75;11.77;;;;;;;1.25;88.83;98814.59;5107076;28;20492;-72
2021/01/05 07:39:45;;;;;;;28.13;12.23;;;;;;;1.29;88.81;98816.38;5093338;28;20051;-71
2021/01/05 07:42:18;;;;;;;29.80;12.77;;;;;;;1.39;89.08;98814.06;5094044;28;20055;-71
2021/01/05 07:44:48;;;;;;;23.67;11.63;;;;;;;1.41;88.89;98819.97;5094460;28;20048;-71
2021/01/05 07:47:18;;;;;;;30.48;13.73;;;;;;;1.56;89.08;98817.78;5107473;28;20039;-72
2021/01/05 07:49:47;;;;;;;28.85;13.02;;;;;;;1.45;88.60;98776.47;5114391;28;20531;-72
2021/01/05 07:52:23;;;;;;;24.98;12.60;;;;;;;1.67;89.10;98816.31;5114295;28;20493;-72
2021/01/05 07:54:52;;;;;;;30.33;13.40;;;;;;;1.63;88.50;98817.06;5114354;28;20056;-72
2021/01/05 07:57:24;;;;;;;27.45;13.90;;;;;;;1.73;88.44;98826.47;5113970;28;20043;-71
2021/01/05 07:59:53;;;;;;;36.60;15.00;;;;;;;0.79;88.59;98646.16;5114203;28;20047;-72
2021/01/05 08:02:22;;;;;;;31.52;14.32;;;;;;;1.83;88.46;98825.84;5114094;28;20039;-71
2021/01/05 08:04:50;;;;;;;30.60;14.07;;;;;;;1.96;89.24;98827.81;5114476;28;20032;-70
2021/01/05 08:07:18;;;;;;;27.33;11.80;;;;;;;1.10;88.86;98663.53;5114127;28;20050;-71
2021/01/05 08:09:47;;;;;;;35.08;14.85;;;;;;;1.90;88.50;98823.50;5114031;28;20047;-70
2021/01/05 08:12:17;;;;;;;;;;;;;;;2.03;88.36;98822.94;5114506;28;20066;-72
2021/01/05 08:14:47;;;;;;;28.30;13.68;;;;;;;2.08;89.04;98828.03;5114156;28;19920;-70
2021/01/05 08:17:15;;;;;;;;;;;;;;;2.06;88.58;98832.19;5101471;28;20555;-70
2021/01/05 08:19:45;;;;;;;25.05;12.20;;;;;;;2.01;88.46;98832.13;5093969;28;19962;-70
2021/01/05 08:22:28;;;;;;;;;;;;;;;1.83;88.87;98831.75;5093644;28;20073;-71
2021/01/05 08:24:57;;;;;;;29.10;13.13;;;;;;;1.76;88.87;98839.97;5071432;28;19920;-70
2021/01/05 08:27:40;;;;;;;19.30;9.60;;;;;;;1.74;89.04;98834.06;5071341;28;20052;-71
2021/01/05 08:30:16;;;;;;;25.67;11.68;;;;;;;1.70;88.88;98834.00;5011639;28;20077;-72
2021/01/05 08:32:46;;;;;;;26.08;12.52;;;;;;;1.81;88.70;98832.53;5011588;28;20399;-70
2021/01/05 08:35:15;;;;;;;26.58;12.80;;;;;;;1.77;88.41;98813.16;5011563;28;20042;-72
2021/01/05 08:37:43;;;;;;;25.17;12.13;;;;;;;1.81;89.00;98812.41;5011558;28;20049;-71
2021/01/05 08:40:17;;;;;;;30.05;12.38;;;;;;;1.98;88.82;98836.22;5011553;28;20080;-72
2021/01/05 08:42:46;;;;;;;23.25;10.68;;;;;;;2.04;89.34;98838.84;5011671;28;20092;-71
2021/01/05 08:45:15;;;;;;;26.27;12.70;;;;;;;2.04;88.86;98847.25;5019068;28;20041;-72
2021/01/05 08:47:48;;;;;;;31.30;14.93;;;;;;;2.21;88.80;98840.00;5030205;28;20408;-71
2021/01/05 08:50:19;;;;;;;32.00;16.40;;;;;;;2.32;88.94;98838.56;5031079;28;20049;-71
2021/01/05 08:52:47;;;;;;;38.63;19.30;;;;;;;2.29;89.48;98810.81;5031090;28;20057;-71
2021/01/05 08:55:16;;;;;;;45.20;20.73;;;;;;;2.52;89.53;98842.25;5030983;28;20057;-71
2021/01/05 08:57:45;;;;;;;42.33;20.13;;;;;;;2.62;89.41;98849.16;5031132;28;20065;-70
2021/01/05 09:00:14;;;;;;;48.47;23.33;;;;;;;2.67;88.91;98842.53;5030957;28;20046;-71
2021/01/05 09:02:43;;;;;;;;;;;;;;;2.67;89.25;98845.03;5046256;28;20159;-71
2021/01/05 09:05:12;;;;;;;39.60;20.77;;;;;;;2.59;89.12;98844.06;5050879;28;19920;-72
2021/01/05 09:07:40;;;;;;;44.83;22.50;;;;;;;2.65;88.58;98846.69;5071524;28;20085;-72
2021/01/05 09:10:15;;;;;;;45.25;22.63;;;;;;;2.76;89.09;98846.03;5097331;28;20554;-71
2021/01/05 09:12:44;;;;;;;43.55;21.38;;;;;;;2.73;89.27;98847.66;5096966;28;20109;-70
2021/01/05 09:18:56;;;;;;;41.63;19.70;;;;;;;2.72;89.06;98863.59;5052180;28;20075;-71
2021/01/05 09:21:27;;;;;;;47.55;23.52;;;;;;;2.83;89.18;98857.91;5054118;28;20053;-72
2021/01/05 09:23:58;;;;;;;49.88;24.02;;;;;;;2.88;89.24;98859.66;5054300;28;20069;-71
2021/01/05 09:26:29;;;;;;;50.38;23.23;;;;;;;2.89;88.19;98852.94;5054872;28;20446;-69
2021/01/05 09:28:59;;;;;;;61.63;28.15;;;;;;;2.95;88.38;98858.09;5054289;28;20141;-69
2021/01/05 09:31:29;;;;;;;48.65;24.58;;;;;;;2.96;88.97;98859.78;5054285;28;20434;-70
2021/01/05 09:34:06;;;;;;;52.70;23.73;;;;;;;2.90;88.54;98864.75;5053930;28;20069;-71
2021/01/05 09:36:35;;;;;;;47.97;21.05;;;;;;;2.89;88.41;98858.84;5025817;28;20045;-71
2021/01/05 09:39:05;;;;;;;49.10;22.05;;;;;;;2.97;88.87;98857.31;5034146;28;20084;-71
2021/01/05 09:41:36;;;;;;;45.30;21.50;;;;;;;3.06;89.20;98851.53;5034160;28;20049;-71
2021/01/05 09:44:08;;;;;;;43.40;19.65;;;;;;;3.15;88.87;98852.53;5034150;28;20511;-71
2021/01/05 09:46:38;;;;;;;43.90;21.55;;;;;;;3.17;88.80;98850.03;5034101;28;20061;-71
2021/01/05 09:49:12;;;;;;;43.60;20.33;;;;;;;3.25;88.46;98848.47;5034040;28;20057;-71
2021/01/05 09:51:41;;;;;;;49.15;23.02;;;;;;;3.34;88.66;98846.94;5034025;28;20120;-71
2021/01/05 09:54:16;;;;;;;46.80;22.27;;;;;;;3.26;88.45;98819.94;5043841;28;20135;-71
2021/01/05 09:56:50;;;;;;;47.33;21.80;;;;;;;3.47;88.95;98854.69;5096115;28;20079;-71
2021/01/05 09:59:21;;;;;;;46.65;23.60;;;;;;;3.53;88.53;98857.31;5096144;28;20134;-71
2021/01/05 10:01:50;;;;;;;47.17;21.80;;;;;;;3.62;87.86;98860.78;5095944;28;20044;-71
2021/01/05 10:04:18;;;;;;;46.25;22.48;;;;;;;3.66;88.07;98857.47;5098796;28;20036;-71
2021/01/05 10:06:46;;;;;;;49.58;21.92;;;;;;;3.68;88.81;98849.91;5106040;28;20119;-72
2021/01/05 10:09:14;;;;;;;55.95;24.35;;;;;;;3.66;87.96;98857.47;5104822;28;20052;-71
2021/01/05 10:11:45;;;;;;;48.50;24.90;;;;;;;3.71;88.56;98857.53;5096935;28;20042;-71
2021/01/05 10:14:18;;;;;;;55.72;24.88;;;;;;;3.84;88.71;98862.75;5115884;28;20067;-71
2021/01/05 10:16:53;;;;;;;48.35;23.90;;;;;;;3.84;88.23;98855.16;5109409;28;20433;-71
2021/01/05 10:19:23;;;;;;;54.28;24.02;;;;;;;3.90;88.18;98861.97;5116014;28;20071;-71
2021/01/05 10:21:52;;;;;;;53.20;23.23;;;;;;;3.74;87.73;98833.16;5112625;28;20063;-71
2021/01/05 10:24:21;;;;;;;49.10;22.90;;;;;;;3.82;87.83;98866.94;5095644;28;20059;-71
2021/01/05 10:26:50;;;;;;;52.58;22.98;;;;;;;3.87;87.44;98867.84;5095538;28;20049;-72
2021/01/05 10:29:20;;;;;;;46.53;22.60;;;;;;;3.87;87.97;98865.31;5095439;28;20083;-71
2021/01/05 10:31:49;;;;;;;51.47;21.83;;;;;;;3.97;87.64;98859.56;5104940;28;20044;-71
2021/01/05 10:34:19;;;;;;;49.45;22.33;;;;;;;4.01;88.06;98851.19;5105894;28;20055;-71
2021/01/05 10:36:51;;;;;;;47.40;22.40;;;;;;;4.15;88.21;98858.06;5111579;28;20613;-71
2021/01/05 10:39:23;;;;;;;49.53;20.92;;;;;;;4.23;87.88;98857.31;5095367;28;20512;-71
2021/01/05 10:41:52;;;;;;;45.50;20.17;;;;;;;4.29;87.34;98862.44;5102094;28;20500;-71
2021/01/05 10:44:23;;;;;;;46.10;20.42;;;;;;;4.25;87.83;98855.66;5115672;28;20557;-71
2021/01/05 10:46:58;;;;;;;39.80;21.00;;;;;;;4.24;88.00;98858.16;5115543;28;20118;-71
2021/01/05 10:49:28;;;;;;;41.67;20.27;;;;;;;4.21;87.26;98846.34;5095810;28;20119;-71
2021/01/05 10:51:58;;;;;;;48.00;21.67;;;;;;;4.26;87.30;98848.94;5094885;28;20418;-71
2021/01/05 10:54:27;;;;;;;;;;;;;;;4.31;87.30;98850.69;5095046;28;20505;-71
2021/01/05 10:56:57;;;;;;;42.05;20.42;;;;;;;4.36;87.19;98853.25;5094964;28;19951;-71
2021/01/05 10:59:27;;;;;;;42.35;20.17;;;;;;;4.41;87.61;98856.69;5094941;28;20498;-71
2021/01/05 11:01:58;;;;;;;53.08;20.33;;;;;;;4.43;87.31;98844.91;5094823;28;20040;-71
2021/01/05 11:04:27;;;;;;;49.38;22.10;;;;;;;4.50;87.71;98847.50;5095166;28;20052;-71
2021/01/05 11:06:57;;;;;;;42.75;19.63;;;;;;;4.53;87.61;98851.75;5094772;28;20052;-71
2021/01/05 11:09:27;;;;;;;41.10;20.45;;;;;;;3.27;87.20;98625.81;5094727;28;20502;-71
2021/01/05 11:11:57;;;;;;;50.78;21.15;;;;;;;4.63;87.58;98845.97;5097536;28;20035;-71
2021/01/05 11:14:26;;;;;;;52.03;23.00;;;;;;;4.70;87.12;98840.13;5115041;28;20118;-71
2021/01/05 11:16:55;;;;;;;35.17;16.97;;;;;;;4.79;87.26;98845.25;5114854;28;20050;-71
2021/01/05 11:19:25;;;;;;;48.83;21.00;;;;;;;4.80;86.97;98831.75;5114889;28;20059;-71
2021/01/05 11:21:57;;;;;;;44.03;20.17;;;;;;;4.87;86.94;98838.56;5110759;28;20059;-72
2021/01/05 11:24:26;;;;;;;42.72;19.60;;;;;;;4.85;87.17;98835.19;5094733;28;20094;-71
2021/01/05 11:26:55;;;;;;;42.30;19.05;;;;;;;4.90;86.64;98838.59;5094404;28;20036;-71
2021/01/05 11:29:25;;;;;;;39.58;18.30;;;;;;;4.90;86.54;98840.25;5094279;28;20436;-70
2021/01/05 11:32:06;;;;;;;44.08;20.35;;;;;;;4.89;86.48;98834.38;5100010;28;20061;-71
2021/01/05 11:34:37;;;;;;;45.90;19.13;;;;;;;4.90;86.51;98822.56;5109731;28;20168;-71
2021/01/05 11:37:10;;;;;;;43.53;18.83;;;;;;;5.03;86.18;98830.28;5103549;28;20054;-72
2021/01/05 11:39:42;;;;;;;40.97;18.10;;;;;;;5.08;85.98;98823.56;5099700;28;20056;-71
2021/01/05 11:42:11;;;;;;;38.65;18.35;;;;;;;5.16;86.04;98832.03;5096682;28;20047;-71
2021/01/05 11:44:46;;;;;;;44.97;19.50;;;;;;;5.17;85.98;98833.75;5105074;28;20047;-70
2021/01/05 11:47:16;;;;;;;36.25;17.92;;;;;;;5.11;85.34;98841.28;5114412;28;20481;-70
2021/01/05 11:49:46;;;;;;;41.53;19.52;;;;;;;5.06;85.57;98840.41;5114385;28;20059;-71
2021/01/05 11:52:14;;;;;;;40.85;19.25;;;;;;;5.14;85.04;98838.78;5114388;28;20527;-71
2021/01/05 11:54:43;;;;;;;43.03;19.08;;;;;;;5.23;84.90;98843.88;5114349;28;20046;-71
2021/01/05 11:57:12;;;;;;;43.15;19.70;;;;;;;5.28;84.72;98834.66;5114225;28;20130;-71
2021/01/05 11:59:40;;;;;;;41.55;19.52;;;;;;;5.39;84.93;98845.72;5114288;28;20048;-71
2021/01/05 12:02:08;;;;;;;44.13;20.85;;;;;;;5.52;84.55;98841.53;5114138;28;20089;-70